sensor_id;sensor_type;location;lat;lon;timestamp;temperature;humidity
57709;SHT35;42558;52.388;13.390;2023-08-08T00:01:22;13.77;73.39
57709;SHT35;42558;52.388;13.390;2023-08-08T00:03:51;13.73;73.52
57709;SHT35;42558;52.388;13.390;2023-08-08T00:06:19;13.63;73.97
57709;SHT35;42558;52.388;13.390;2023-08-08T00:08:48;13.52;74.32
57709;SHT35;42558;52.388;13.390;2023-08-08T00:11:16;13.50;74.33
57709;SHT35;42558;52.388;13.390;2023-08-08T00:13:45;13.45;74.48
57709;SHT35;42558;52.388;13.390;2023-08-08T00:16:13;13.44;74.43
57709;SHT35;42558;52.388;13.390;2023-08-08T00:18:41;13.37;74.72
57709;SHT35;42558;52.388;13.390;2023-08-08T00:21:10;13.31;74.80
57709;SHT35;42558;52.388;13.390;2023-08-08T00:23:38;13.28;74.84
57709;SHT35;42558;52.388;13.390;2023-08-08T00:26:06;13.32;74.50
57709;SHT35;42558;52.388;13.390;2023-08-08T00:28:35;13.31;74.43
57709;SHT35;42558;52.388;13.390;2023-08-08T00:31:03;13.28;74.60
57709;SHT35;42558;52.388;13.390;2023-08-08T00:33:32;13.22;74.74
57709;SHT35;42558;52.388;13.390;2023-08-08T00:36:00;13.23;74.39
57709;SHT35;42558;52.388;13.390;2023-08-08T00:38:29;13.23;74.36
57709;SHT35;42558;52.388;13.390;2023-08-08T00:40:57;13.18;74.60
57709;SHT35;42558;52.388;13.390;2023-08-08T00:43:25;13.13;74.67
57709;SHT35;42558;52.388;13.390;2023-08-08T00:45:54;13.07;74.94
57709;SHT35;42558;52.388;13.390;2023-08-08T00:48:22;13.01;74.97
57709;SHT35;42558;52.388;13.390;2023-08-08T00:50:51;13.06;74.68
57709;SHT35;42558;52.388;13.390;2023-08-08T00:53:19;13.02;74.87
57709;SHT35;42558;52.388;13.390;2023-08-08T00:55:50;12.97;75.07
57709;SHT35;42558;52.388;13.390;2023-08-08T00:58:19;12.91;75.19
57709;SHT35;42558;52.388;13.390;2023-08-08T01:00:47;12.96;74.75
57709;SHT35;42558;52.388;13.390;2023-08-08T01:03:16;12.96;74.85
57709;SHT35;42558;52.388;13.390;2023-08-08T01:05:48;12.90;75.06
57709;SHT35;42558;52.388;13.390;2023-08-08T01:08:35;12.84;75.32
57709;SHT35;42558;52.388;13.390;2023-08-08T01:11:15;12.77;75.44
57709;SHT35;42558;52.388;13.390;2023-08-08T01:13:46;12.72;75.65
57709;SHT35;42558;52.388;13.390;2023-08-08T01:16:17;12.73;75.50
57709;SHT35;42558;52.388;13.390;2023-08-08T01:18:49;12.73;75.55
57709;SHT35;42558;52.388;13.390;2023-08-08T01:21:21;12.68;75.55
57709;SHT35;42558;52.388;13.390;2023-08-08T01:26:55;12.70;75.03
57709;SHT35;42558;52.388;13.390;2023-08-08T01:29:26;12.67;75.27
57709;SHT35;42558;52.388;13.390;2023-08-08T01:31:57;12.67;75.07
57709;SHT35;42558;52.388;13.390;2023-08-08T01:34:27;12.67;75.11
57709;SHT35;42558;52.388;13.390;2023-08-08T01:36:59;12.61;75.49
57709;SHT35;42558;52.388;13.390;2023-08-08T01:39:45;12.55;75.42
57709;SHT35;42558;52.388;13.390;2023-08-08T01:42:17;12.50;75.68
57709;SHT35;42558;52.388;13.390;2023-08-08T01:44:51;12.46;75.69
57709;SHT35;42558;52.388;13.390;2023-08-08T01:47:24;12.45;75.56
57709;SHT35;42558;52.388;13.390;2023-08-08T01:49:54;12.48;75.24
57709;SHT35;42558;52.388;13.390;2023-08-08T01:52:24;12.43;75.50
57709;SHT35;42558;52.388;13.390;2023-08-08T01:54:54;12.34;75.79
57709;SHT35;42558;52.388;13.390;2023-08-08T01:57:24;12.30;75.79
57709;SHT35;42558;52.388;13.390;2023-08-08T01:59:54;12.31;75.40
57709;SHT35;42558;52.388;13.390;2023-08-08T02:02:24;12.36;75.20
57709;SHT35;42558;52.388;13.390;2023-08-08T02:04:54;12.38;74.91
57709;SHT35;42558;52.388;13.390;2023-08-08T02:07:24;12.41;74.81
57709;SHT35;42558;52.388;13.390;2023-08-08T02:09:53;12.38;75.09
57709;SHT35;42558;52.388;13.390;2023-08-08T02:12:21;12.32;75.14
57709;SHT35;42558;52.388;13.390;2023-08-08T02:14:50;12.31;75.12
57709;SHT35;42558;52.388;13.390;2023-08-08T02:17:18;12.33;75.01
57709;SHT35;42558;52.388;13.390;2023-08-08T02:19:46;12.31;75.10
57709;SHT35;42558;52.388;13.390;2023-08-08T02:22:15;12.27;75.44
57709;SHT35;42558;52.388;13.390;2023-08-08T02:24:46;12.23;75.49
57709;SHT35;42558;52.388;13.390;2023-08-08T02:27:15;12.24;75.53
57709;SHT35;42558;52.388;13.390;2023-08-08T02:29:43;12.25;75.42
57709;SHT35;42558;52.388;13.390;2023-08-08T02:32:11;12.25;75.53
57709;SHT35;42558;52.388;13.390;2023-08-08T02:34:42;12.26;75.44
57709;SHT35;42558;52.388;13.390;2023-08-08T02:37:12;12.30;75.33
57709;SHT35;42558;52.388;13.390;2023-08-08T02:39:43;12.33;75.39
57709;SHT35;42558;52.388;13.390;2023-08-08T02:42:14;12.42;75.22
57709;SHT35;42558;52.388;13.390;2023-08-08T02:44:44;12.41;75.50
57709;SHT35;42558;52.388;13.390;2023-08-08T02:47:13;12.38;75.74
57709;SHT35;42558;52.388;13.390;2023-08-08T02:49:43;12.37;76.01
57709;SHT35;42558;52.388;13.390;2023-08-08T02:52:13;12.39;76.10
57709;SHT35;42558;52.388;13.390;2023-08-08T02:54:43;12.36;76.23
57709;SHT35;42558;52.388;13.390;2023-08-08T02:57:13;12.31;76.53
57709;SHT35;42558;52.388;13.390;2023-08-08T02:59:43;12.32;76.62
57709;SHT35;42558;52.388;13.390;2023-08-08T03:02:12;12.31;76.72
57709;SHT35;42558;52.388;13.390;2023-08-08T03:04:42;12.34;76.61
57709;SHT35;42558;52.388;13.390;2023-08-08T03:07:12;12.40;76.47
57709;SHT35;42558;52.388;13.390;2023-08-08T03:09:42;12.40;76.61
57709;SHT35;42558;52.388;13.390;2023-08-08T03:12:12;12.34;76.97
57709;SHT35;42558;52.388;13.390;2023-08-08T03:14:42;12.31;77.21
57709;SHT35;42558;52.388;13.390;2023-08-08T03:17:12;12.29;77.38
57709;SHT35;42558;52.388;13.390;2023-08-08T03:19:42;12.28;77.46
57709;SHT35;42558;52.388;13.390;2023-08-08T03:22:13;12.22;77.66
57709;SHT35;42558;52.388;13.390;2023-08-08T03:24:43;12.15;78.10
57709;SHT35;42558;52.388;13.390;2023-08-08T03:27:12;12.13;78.21
57709;SHT35;42558;52.388;13.390;2023-08-08T03:29:42;12.11;78.31
57709;SHT35;42558;52.388;13.390;2023-08-08T03:32:12;12.05;78.71
57709;SHT35;42558;52.388;13.390;2023-08-08T03:34:42;12.04;78.84
57709;SHT35;42558;52.388;13.390;2023-08-08T03:37:12;12.03;79.01
57709;SHT35;42558;52.388;13.390;2023-08-08T03:39:41;12.03;79.00
57709;SHT35;42558;52.388;13.390;2023-08-08T03:42:11;12.05;79.01
57709;SHT35;42558;52.388;13.390;2023-08-08T03:44:41;12.03;79.17
57709;SHT35;42558;52.388;13.390;2023-08-08T03:47:11;12.04;79.30
57709;SHT35;42558;52.388;13.390;2023-08-08T03:49:48;12.03;79.55
57709;SHT35;42558;52.388;13.390;2023-08-08T03:52:18;12.05;79.44
57709;SHT35;42558;52.388;13.390;2023-08-08T03:54:48;12.08;79.42
57709;SHT35;42558;52.388;13.390;2023-08-08T03:57:18;12.09;79.53
57709;SHT35;42558;52.388;13.390;2023-08-08T03:59:48;12.09;79.53
57709;SHT35;42558;52.388;13.390;2023-08-08T04:02:17;12.14;79.67
57709;SHT35;42558;52.388;13.390;2023-08-08T04:04:47;12.19;79.57
57709;SHT35;42558;52.388;13.390;2023-08-08T04:07:16;12.29;79.29
57709;SHT35;42558;52.388;13.390;2023-08-08T04:09:44;12.37;78.87
57709;SHT35;42558;52.388;13.390;2023-08-08T04:12:12;12.43;78.67
57709;SHT35;42558;52.388;13.390;2023-08-08T04:14:41;12.46;78.82
57709;SHT35;42558;52.388;13.390;2023-08-08T04:17:09;12.53;78.45
57709;SHT35;42558;52.388;13.390;2023-08-08T04:19:38;12.61;78.40
57709;SHT35;42558;52.388;13.390;2023-08-08T04:22:06;12.64;78.40
57709;SHT35;42558;52.388;13.390;2023-08-08T04:24:34;12.68;78.54
57709;SHT35;42558;52.388;13.390;2023-08-08T04:27:03;12.71;78.51
57709;SHT35;42558;52.388;13.390;2023-08-08T04:29:31;12.77;78.08
57709;SHT35;42558;52.388;13.390;2023-08-08T04:32:00;12.82;78.12
57709;SHT35;42558;52.388;13.390;2023-08-08T04:34:28;12.86;77.70
57709;SHT35;42558;52.388;13.390;2023-08-08T04:36:57;12.89;77.69
57709;SHT35;42558;52.388;13.390;2023-08-08T04:39:25;12.91;77.77
57709;SHT35;42558;52.388;13.390;2023-08-08T04:41:53;12.91;77.66
57709;SHT35;42558;52.388;13.390;2023-08-08T04:44:22;12.88;77.85
57709;SHT35;42558;52.388;13.390;2023-08-08T04:46:50;12.84;78.13
57709;SHT35;42558;52.388;13.390;2023-08-08T04:49:19;12.85;78.11
57709;SHT35;42558;52.388;13.390;2023-08-08T04:51:47;12.90;78.01
57709;SHT35;42558;52.388;13.390;2023-08-08T04:54:15;12.92;77.98
57709;SHT35;42558;52.388;13.390;2023-08-08T04:56:44;12.98;77.87
57709;SHT35;42558;52.388;13.390;2023-08-08T04:59:12;12.99;77.76
57709;SHT35;42558;52.388;13.390;2023-08-08T05:01:41;13.06;77.99
57709;SHT35;42558;52.388;13.390;2023-08-08T05:04:09;13.12;77.95
57709;SHT35;42558;52.388;13.390;2023-08-08T05:06:37;13.18;77.75
57709;SHT35;42558;52.388;13.390;2023-08-08T05:09:06;13.24;77.52
57709;SHT35;42558;52.388;13.390;2023-08-08T05:11:37;13.36;77.59
57709;SHT35;42558;52.388;13.390;2023-08-08T05:14:06;13.46;77.32
57709;SHT35;42558;52.388;13.390;2023-08-08T05:16:34;13.56;76.80
57709;SHT35;42558;52.388;13.390;2023-08-08T05:19:03;13.60;76.58
57709;SHT35;42558;52.388;13.390;2023-08-08T05:21:31;13.63;76.67
57709;SHT35;42558;52.388;13.390;2023-08-08T05:23:59;13.66;76.58
57709;SHT35;42558;52.388;13.390;2023-08-08T05:26:28;13.71;76.17
57709;SHT35;42558;52.388;13.390;2023-08-08T05:28:56;13.74;75.92
57709;SHT35;42558;52.388;13.390;2023-08-08T05:31:26;13.75;75.95
57709;SHT35;42558;52.388;13.390;2023-08-08T05:33:56;13.76;75.98
57709;SHT35;42558;52.388;13.390;2023-08-08T05:36:26;13.89;76.20
57709;SHT35;42558;52.388;13.390;2023-08-08T05:38:56;13.97;75.98
57709;SHT35;42558;52.388;13.390;2023-08-08T05:41:26;14.07;76.01
57709;SHT35;42558;52.388;13.390;2023-08-08T05:43:54;14.14;75.07
57709;SHT35;42558;52.388;13.390;2023-08-08T05:46:23;14.15;75.57
57709;SHT35;42558;52.388;13.390;2023-08-08T05:48:51;14.11;75.75
57709;SHT35;42558;52.388;13.390;2023-08-08T05:51:19;14.21;75.49
57709;SHT35;42558;52.388;13.390;2023-08-08T05:53:48;14.18;75.23
57709;SHT35;42558;52.388;13.390;2023-08-08T05:56:16;14.19;75.14
57709;SHT35;42558;52.388;13.390;2023-08-08T05:58:45;14.23;75.52
57709;SHT35;42558;52.388;13.390;2023-08-08T06:01:13;14.29;75.22
57709;SHT35;42558;52.388;13.390;2023-08-08T06:03:42;14.37;75.11
57709;SHT35;42558;52.388;13.390;2023-08-08T06:06:10;14.39;74.77
57709;SHT35;42558;52.388;13.390;2023-08-08T06:08:38;14.39;74.78
57709;SHT35;42558;52.388;13.390;2023-08-08T06:11:07;14.35;74.79
57709;SHT35;42558;52.388;13.390;2023-08-08T06:13:36;14.39;75.00
57709;SHT35;42558;52.388;13.390;2023-08-08T06:16:07;14.40;74.99
57709;SHT35;42558;52.388;13.390;2023-08-08T06:18:35;14.34;75.09
57709;SHT35;42558;52.388;13.390;2023-08-08T06:21:04;14.39;75.28
57709;SHT35;42558;52.388;13.390;2023-08-08T06:23:32;14.35;74.82
57709;SHT35;42558;52.388;13.390;2023-08-08T06:26:00;14.48;74.97
57709;SHT35;42558;52.388;13.390;2023-08-08T06:28:29;14.52;74.52
57709;SHT35;42558;52.388;13.390;2023-08-08T06:30:58;14.55;74.31
57709;SHT35;42558;52.388;13.390;2023-08-08T06:33:26;14.60;74.14
57709;SHT35;42558;52.388;13.390;2023-08-08T06:35:55;14.60;74.16
57709;SHT35;42558;52.388;13.390;2023-08-08T06:38:22;14.60;74.31
57709;SHT35;42558;52.388;13.390;2023-08-08T06:40:51;14.68;74.29
57709;SHT35;42558;52.388;13.390;2023-08-08T06:43:19;14.74;73.55
57709;SHT35;42558;52.388;13.390;2023-08-08T06:45:48;14.77;72.90
57709;SHT35;42558;52.388;13.390;2023-08-08T06:48:16;14.76;73.32
57709;SHT35;42558;52.388;13.390;2023-08-08T06:50:45;14.82;73.30
57709;SHT35;42558;52.388;13.390;2023-08-08T06:53:13;14.83;73.27
57709;SHT35;42558;52.388;13.390;2023-08-08T06:55:41;14.85;73.55
57709;SHT35;42558;52.388;13.390;2023-08-08T06:58:10;14.87;72.73
57709;SHT35;42558;52.388;13.390;2023-08-08T07:00:38;14.89;73.21
57709;SHT35;42558;52.388;13.390;2023-08-08T07:03:07;15.01;73.10
57709;SHT35;42558;52.388;13.390;2023-08-08T07:05:35;15.01;72.58
57709;SHT35;42558;52.388;13.390;2023-08-08T07:08:03;15.09;72.82
57709;SHT35;42558;52.388;13.390;2023-08-08T07:10:32;15.20;73.18
57709;SHT35;42558;52.388;13.390;2023-08-08T07:13:02;15.63;71.80
57709;SHT35;42558;52.388;13.390;2023-08-08T07:15:32;16.08;70.30
57709;SHT35;42558;52.388;13.390;2023-08-08T07:18:02;16.53;69.66
57709;SHT35;42558;52.388;13.390;2023-08-08T07:20:32;16.74;68.44
57709;SHT35;42558;52.388;13.390;2023-08-08T07:23:03;16.72;69.05
57709;SHT35;42558;52.388;13.390;2023-08-08T07:25:33;16.69;68.49
57709;SHT35;42558;52.388;13.390;2023-08-08T07:28:03;16.65;68.87
57709;SHT35;42558;52.388;13.390;2023-08-08T07:30:34;16.42;68.93
57709;SHT35;42558;52.388;13.390;2023-08-08T07:33:05;16.25;69.85
57709;SHT35;42558;52.388;13.390;2023-08-08T07:35:35;16.45;71.06
57709;SHT35;42558;52.388;13.390;2023-08-08T07:38:05;16.59;69.80
57709;SHT35;42558;52.388;13.390;2023-08-08T07:40:35;16.37;69.55
57709;SHT35;42558;52.388;13.390;2023-08-08T07:43:05;16.39;70.04
57709;SHT35;42558;52.388;13.390;2023-08-08T07:45:35;16.63;69.47
57709;SHT35;42558;52.388;13.390;2023-08-08T07:48:05;16.69;69.16
57709;SHT35;42558;52.388;13.390;2023-08-08T07:50:35;16.49;68.67
57709;SHT35;42558;52.388;13.390;2023-08-08T07:53:05;16.25;69.12
57709;SHT35;42558;52.388;13.390;2023-08-08T07:55:34;16.12;69.61
57709;SHT35;42558;52.388;13.390;2023-08-08T07:58:04;16.13;69.67
57709;SHT35;42558;52.388;13.390;2023-08-08T08:00:34;16.35;69.87
57709;SHT35;42558;52.388;13.390;2023-08-08T08:03:04;16.54;69.44
57709;SHT35;42558;52.388;13.390;2023-08-08T08:05:34;16.97;69.04
57709;SHT35;42558;52.388;13.390;2023-08-08T08:08:05;16.91;67.86
57709;SHT35;42558;52.388;13.390;2023-08-08T08:10:33;16.83;67.56
57709;SHT35;42558;52.388;13.390;2023-08-08T08:13:02;16.69;67.61
57709;SHT35;42558;52.388;13.390;2023-08-08T08:15:30;16.67;68.12
57709;SHT35;42558;52.388;13.390;2023-08-08T08:17:59;16.87;68.35
57709;SHT35;42558;52.388;13.390;2023-08-08T08:20:27;17.19;68.34
57709;SHT35;42558;52.388;13.390;2023-08-08T08:22:56;17.32;67.45
57709;SHT35;42558;52.388;13.390;2023-08-08T08:25:24;17.34;66.70
57709;SHT35;42558;52.388;13.390;2023-08-08T08:27:53;17.40;66.17
57709;SHT35;42558;52.388;13.390;2023-08-08T08:30:21;17.33;66.07
57709;SHT35;42558;52.388;13.390;2023-08-08T08:32:53;17.04;66.08
57709;SHT35;42558;52.388;13.390;2023-08-08T08:35:23;16.86;67.15
57709;SHT35;42558;52.388;13.390;2023-08-08T08:37:54;16.94;67.14
57709;SHT35;42558;52.388;13.390;2023-08-08T08:40:24;17.64;67.05
57709;SHT35;42558;52.388;13.390;2023-08-08T08:42:57;17.77;66.06
57709;SHT35;42558;52.388;13.390;2023-08-08T08:45:27;17.56;66.33
57709;SHT35;42558;52.388;13.390;2023-08-08T08:48:00;17.57;67.16
57709;SHT35;42558;52.388;13.390;2023-08-08T08:50:28;17.39;66.43
57709;SHT35;42558;52.388;13.390;2023-08-08T08:53:02;17.38;66.48
57709;SHT35;42558;52.388;13.390;2023-08-08T08:55:34;17.27;66.82
57709;SHT35;42558;52.388;13.390;2023-08-08T08:58:04;17.11;67.25
57709;SHT35;42558;52.388;13.390;2023-08-08T09:00:35;17.07;66.58
57709;SHT35;42558;52.388;13.390;2023-08-08T09:03:05;17.08;67.27
57709;SHT35;42558;52.388;13.390;2023-08-08T09:05:36;17.14;67.22
57709;SHT35;42558;52.388;13.390;2023-08-08T09:08:09;17.33;67.35
57709;SHT35;42558;52.388;13.390;2023-08-08T09:10:41;17.43;66.09
57709;SHT35;42558;52.388;13.390;2023-08-08T09:13:11;17.41;65.82
57709;SHT35;42558;52.388;13.390;2023-08-08T09:15:41;17.78;65.75
57709;SHT35;42558;52.388;13.390;2023-08-08T09:18:11;18.08;64.18
57709;SHT35;42558;52.388;13.390;2023-08-08T09:20:41;18.26;63.73
57709;SHT35;42558;52.388;13.390;2023-08-08T09:23:18;18.73;62.25
57709;SHT35;42558;52.388;13.390;2023-08-08T09:25:49;18.88;60.83
57709;SHT35;42558;52.388;13.390;2023-08-08T09:28:19;18.60;62.09
57709;SHT35;42558;52.388;13.390;2023-08-08T09:30:49;18.57;61.91
57709;SHT35;42558;52.388;13.390;2023-08-08T09:33:19;18.53;61.30
57709;SHT35;42558;52.388;13.390;2023-08-08T09:35:49;18.67;61.06
57709;SHT35;42558;52.388;13.390;2023-08-08T09:38:24;18.74;61.08
57709;SHT35;42558;52.388;13.390;2023-08-08T09:40:54;18.81;61.43
57709;SHT35;42558;52.388;13.390;2023-08-08T09:43:24;18.83;61.52
57709;SHT35;42558;52.388;13.390;2023-08-08T09:45:54;19.21;61.60
57709;SHT35;42558;52.388;13.390;2023-08-08T09:48:29;19.54;60.05
57709;SHT35;42558;52.388;13.390;2023-08-08T09:51:01;20.16;59.66
57709;SHT35;42558;52.388;13.390;2023-08-08T09:53:31;19.67;56.82
57709;SHT35;42558;52.388;13.390;2023-08-08T09:56:03;19.05;59.33
57709;SHT35;42558;52.388;13.390;2023-08-08T09:58:34;19.39;60.28
57709;SHT35;42558;52.388;13.390;2023-08-08T10:01:03;19.31;59.70
57709;SHT35;42558;52.388;13.390;2023-08-08T10:03:34;18.71;58.44
57709;SHT35;42558;52.388;13.390;2023-08-08T10:06:07;18.14;61.85
57709;SHT35;42558;52.388;13.390;2023-08-08T10:08:37;17.78;64.28
57709;SHT35;42558;52.388;13.390;2023-08-08T10:11:07;17.58;66.83
57709;SHT35;42558;52.388;13.390;2023-08-08T10:13:46;17.70;67.80
57709;SHT35;42558;52.388;13.390;2023-08-08T10:16:18;17.94;67.77
57709;SHT35;42558;52.388;13.390;2023-08-08T10:18:58;18.00;65.99
57709;SHT35;42558;52.388;13.390;2023-08-08T10:21:32;18.44;65.34
57709;SHT35;42558;52.388;13.390;2023-08-08T10:24:11;18.66;61.91
57709;SHT35;42558;52.388;13.390;2023-08-08T10:26:57;18.73;61.38
57709;SHT35;42558;52.388;13.390;2023-08-08T10:29:32;19.11;62.80
57709;SHT35;42558;52.388;13.390;2023-08-08T10:32:04;19.54;60.88
57709;SHT35;42558;52.388;13.390;2023-08-08T10:34:41;18.95;59.97
57709;SHT35;42558;52.388;13.390;2023-08-08T10:37:15;17.59;65.29
57709;SHT35;42558;52.388;13.390;2023-08-08T10:39:53;16.63;69.13
57709;SHT35;42558;52.388;13.390;2023-08-08T10:42:27;16.25;71.31
57709;SHT35;42558;52.388;13.390;2023-08-08T10:44:58;16.13;73.38
57709;SHT35;42558;52.388;13.390;2023-08-08T10:47:31;15.96;75.14
57709;SHT35;42558;52.388;13.390;2023-08-08T10:50:15;15.95;76.84
57709;SHT35;42558;52.388;13.390;2023-08-08T10:52:54;16.17;77.77
57709;SHT35;42558;52.388;13.390;2023-08-08T10:55:32;16.13;77.12
57709;SHT35;42558;52.388;13.390;2023-08-08T10:58:06;16.04;76.48
57709;SHT35;42558;52.388;13.390;2023-08-08T11:00:39;16.10;77.62
57709;SHT35;42558;52.388;13.390;2023-08-08T11:03:10;16.14;76.97
57709;SHT35;42558;52.388;13.390;2023-08-08T11:05:40;16.67;78.99
57709;SHT35;42558;52.388;13.390;2023-08-08T11:08:14;17.28;77.59
57709;SHT35;42558;52.388;13.390;2023-08-08T11:10:44;17.52;75.92
57709;SHT35;42558;52.388;13.390;2023-08-08T11:13:15;17.02;73.40
57709;SHT35;42558;52.388;13.390;2023-08-08T11:15:45;16.67;74.67
57709;SHT35;42558;52.388;13.390;2023-08-08T11:18:16;16.73;76.89
57709;SHT35;42558;52.388;13.390;2023-08-08T11:20:46;16.73;77.42
57709;SHT35;42558;52.388;13.390;2023-08-08T11:23:17;16.81;76.38
57709;SHT35;42558;52.388;13.390;2023-08-08T11:25:48;17.16;77.68
57709;SHT35;42558;52.388;13.390;2023-08-08T11:28:36;17.47;76.33
57709;SHT35;42558;52.388;13.390;2023-08-08T11:31:05;17.49;75.00
57709;SHT35;42558;52.388;13.390;2023-08-08T11:33:36;17.37;75.45
57709;SHT35;42558;52.388;13.390;2023-08-08T11:36:04;16.64;75.07
57709;SHT35;42558;52.388;13.390;2023-08-08T11:38:37;15.77;74.91
57709;SHT35;42558;52.388;13.390;2023-08-08T11:41:10;15.22;76.50
57709;SHT35;42558;52.388;13.390;2023-08-08T11:43:40;15.00;79.35
57709;SHT35;42558;52.388;13.390;2023-08-08T11:46:14;14.98;81.21
57709;SHT35;42558;52.388;13.390;2023-08-08T11:48:48;15.09;82.40
57709;SHT35;42558;52.388;13.390;2023-08-08T11:51:17;15.25;82.59
57709;SHT35;42558;52.388;13.390;2023-08-08T11:53:48;15.42;82.73
57709;SHT35;42558;52.388;13.390;2023-08-08T11:56:22;15.79;82.77
57709;SHT35;42558;52.388;13.390;2023-08-08T11:58:52;16.27;82.10
57709;SHT35;42558;52.388;13.390;2023-08-08T12:01:25;16.59;80.54
57709;SHT35;42558;52.388;13.390;2023-08-08T12:03:56;16.40;77.15
57709;SHT35;42558;52.388;13.390;2023-08-08T12:06:29;16.53;77.45
57709;SHT35;42558;52.388;13.390;2023-08-08T12:09:00;16.82;76.17
57709;SHT35;42558;52.388;13.390;2023-08-08T12:11:35;17.31;77.65
57709;SHT35;42558;52.388;13.390;2023-08-08T12:14:09;17.56;74.34
57709;SHT35;42558;52.388;13.390;2023-08-08T12:16:39;17.72;73.50
57709;SHT35;42558;52.388;13.390;2023-08-08T12:19:10;17.85;73.72
57709;SHT35;42558;52.388;13.390;2023-08-08T12:21:41;18.18;73.73
57709;SHT35;42558;52.388;13.390;2023-08-08T12:24:10;18.33;71.26
57709;SHT35;42558;52.388;13.390;2023-08-08T12:26:40;18.45;71.55
57709;SHT35;42558;52.388;13.390;2023-08-08T12:29:11;18.29;70.46
57709;SHT35;42558;52.388;13.390;2023-08-08T12:31:39;18.03;69.70
57709;SHT35;42558;52.388;13.390;2023-08-08T12:34:07;17.90;69.89
57709;SHT35;42558;52.388;13.390;2023-08-08T12:36:36;17.48;66.59
57709;SHT35;42558;52.388;13.390;2023-08-08T12:39:04;17.40;67.28
57709;SHT35;42558;52.388;13.390;2023-08-08T12:41:33;17.73;67.14
57709;SHT35;42558;52.388;13.390;2023-08-08T12:44:01;18.21;65.61
57709;SHT35;42558;52.388;13.390;2023-08-08T12:46:29;18.51;65.66
57709;SHT35;42558;52.388;13.390;2023-08-08T12:48:58;18.68;64.15
57709;SHT35;42558;52.388;13.390;2023-08-08T12:51:26;18.74;63.52
57709;SHT35;42558;52.388;13.390;2023-08-08T12:53:55;19.00;63.21
57709;SHT35;42558;52.388;13.390;2023-08-08T12:56:23;19.04;61.12
57709;SHT35;42558;52.388;13.390;2023-08-08T12:58:52;19.13;60.02
57709;SHT35;42558;52.388;13.390;2023-08-08T13:01:20;19.14;60.43
57709;SHT35;42558;52.388;13.390;2023-08-08T13:03:48;18.98;60.17
57709;SHT35;42558;52.388;13.390;2023-08-08T13:06:38;18.64;60.82
57709;SHT35;42558;52.388;13.390;2023-08-08T13:09:08;18.92;58.38
57709;SHT35;42558;52.388;13.390;2023-08-08T13:11:38;19.33;57.57
57709;SHT35;42558;52.388;13.390;2023-08-08T13:14:08;19.61;55.66
57709;SHT35;42558;52.388;13.390;2023-08-08T13:16:38;19.63;56.44
57709;SHT35;42558;52.388;13.390;2023-08-08T13:19:09;19.90;55.89
57709;SHT35;42558;52.388;13.390;2023-08-08T13:21:38;20.09;55.57
57709;SHT35;42558;52.388;13.390;2023-08-08T13:24:08;20.24;56.99
57709;SHT35;42558;52.388;13.390;2023-08-08T13:26:39;20.12;56.32
57709;SHT35;42558;52.388;13.390;2023-08-08T13:29:09;20.04;56.27
57709;SHT35;42558;52.388;13.390;2023-08-08T13:31:41;19.97;57.16
57709;SHT35;42558;52.388;13.390;2023-08-08T13:34:11;19.97;57.86
57709;SHT35;42558;52.388;13.390;2023-08-08T13:36:41;20.31;57.86
57709;SHT35;42558;52.388;13.390;2023-08-08T13:39:11;20.42;56.63
57709;SHT35;42558;52.388;13.390;2023-08-08T13:41:41;19.84;55.67
57709;SHT35;42558;52.388;13.390;2023-08-08T13:44:11;19.43;56.94
57709;SHT35;42558;52.388;13.390;2023-08-08T13:46:40;19.09;57.16
57709;SHT35;42558;52.388;13.390;2023-08-08T13:49:08;18.61;59.16
57709;SHT35;42558;52.388;13.390;2023-08-08T13:51:37;18.05;60.60
57709;SHT35;42558;52.388;13.390;2023-08-08T13:54:05;17.75;60.51
57709;SHT35;42558;52.388;13.390;2023-08-08T13:56:34;17.59;60.99
57709;SHT35;42558;52.388;13.390;2023-08-08T13:59:02;17.51;61.54
57709;SHT35;42558;52.388;13.390;2023-08-08T14:01:30;17.41;61.32
57709;SHT35;42558;52.388;13.390;2023-08-08T14:03:59;17.37;62.00
57709;SHT35;42558;52.388;13.390;2023-08-08T14:06:27;17.39;62.04
57709;SHT35;42558;52.388;13.390;2023-08-08T14:08:56;17.33;61.97
57709;SHT35;42558;52.388;13.390;2023-08-08T14:11:24;17.35;61.90
57709;SHT35;42558;52.388;13.390;2023-08-08T14:13:52;17.43;61.49
57709;SHT35;42558;52.388;13.390;2023-08-08T14:16:21;17.50;61.79
57709;SHT35;42558;52.388;13.390;2023-08-08T14:18:49;17.63;61.88
57709;SHT35;42558;52.388;13.390;2023-08-08T14:21:18;17.89;62.54
57709;SHT35;42558;52.388;13.390;2023-08-08T14:23:46;18.63;63.35
57709;SHT35;42558;52.388;13.390;2023-08-08T14:26:15;19.32;60.28
57709;SHT35;42558;52.388;13.390;2023-08-08T14:28:43;19.37;59.22
57709;SHT35;42558;52.388;13.390;2023-08-08T14:31:12;19.66;59.05
57709;SHT35;42558;52.388;13.390;2023-08-08T14:33:40;19.81;58.60
57709;SHT35;42558;52.388;13.390;2023-08-08T14:36:08;20.02;56.99
57709;SHT35;42558;52.388;13.390;2023-08-08T14:38:37;20.03;56.56
57709;SHT35;42558;52.388;13.390;2023-08-08T14:41:05;20.09;56.62
57709;SHT35;42558;52.388;13.390;2023-08-08T14:43:34;20.52;56.63
57709;SHT35;42558;52.388;13.390;2023-08-08T14:46:02;20.69;54.51
57709;SHT35;42558;52.388;13.390;2023-08-08T14:48:31;20.61;54.63
57709;SHT35;42558;52.388;13.390;2023-08-08T14:50:59;20.50;54.53
57709;SHT35;42558;52.388;13.390;2023-08-08T14:53:30;20.60;55.93
57709;SHT35;42558;52.388;13.390;2023-08-08T14:55:59;20.73;57.73
57709;SHT35;42558;52.388;13.390;2023-08-08T14:58:27;20.55;58.78
57709;SHT35;42558;52.388;13.390;2023-08-08T15:00:56;20.05;60.79
57709;SHT35;42558;52.388;13.390;2023-08-08T15:03:24;19.55;62.91
57709;SHT35;42558;52.388;13.390;2023-08-08T15:05:53;19.40;63.79
57709;SHT35;42558;52.388;13.390;2023-08-08T15:08:21;19.08;64.52
57709;SHT35;42558;52.388;13.390;2023-08-08T15:10:53;19.09;65.11
57709;SHT35;42558;52.388;13.390;2023-08-08T15:13:25;19.28;64.33
57709;SHT35;42558;52.388;13.390;2023-08-08T15:15:55;19.18;64.90
57709;SHT35;42558;52.388;13.390;2023-08-08T15:18:25;19.20;64.75
57709;SHT35;42558;52.388;13.390;2023-08-08T15:20:55;19.16;64.92
57709;SHT35;42558;52.388;13.390;2023-08-08T15:23:25;19.13;65.77
57709;SHT35;42558;52.388;13.390;2023-08-08T15:25:58;18.83;65.96
57709;SHT35;42558;52.388;13.390;2023-08-08T15:28:28;18.73;66.20
57709;SHT35;42558;52.388;13.390;2023-08-08T15:30:56;18.71;65.77
57709;SHT35;42558;52.388;13.390;2023-08-08T15:33:24;18.56;67.28
57709;SHT35;42558;52.388;13.390;2023-08-08T15:35:53;18.45;69.46